createdAt,value
2018-09-28T00:01:10.105Z,101396.95
2018-09-28T00:03:39.704Z,101401.90
2018-09-28T00:06:09.293Z,101399.73
2018-09-28T00:08:40.069Z,101392.39
2018-09-28T00:11:10.139Z,101394.47
2018-09-28T00:13:39.737Z,101398.81
2018-09-28T00:16:09.295Z,101397.59
2018-09-28T00:18:38.841Z,101389.77
2018-09-28T00:21:08.904Z,101386.98
2018-09-28T00:23:38.447Z,101394.56
2018-09-28T00:26:08.437Z,101397.58
2018-09-28T00:28:38.098Z,101386.44
2018-09-28T00:31:07.808Z,101393.64
2018-09-28T00:33:38.244Z,101385.44
2018-09-28T00:36:07.893Z,101394.00
2018-09-28T00:38:37.450Z,101381.50
2018-09-28T00:41:07.301Z,101380.19
2018-09-28T00:43:36.841Z,101375.13
2018-09-28T00:46:06.406Z,101374.66
2018-09-28T00:48:36.007Z,101374.01
2018-09-28T00:51:05.636Z,101362.11
2018-09-28T00:53:35.189Z,101364.94
2018-09-28T00:56:05.174Z,101366.17
2018-09-28T00:58:34.751Z,101366.41
2018-09-28T01:01:04.340Z,101365.23
2018-09-28T01:03:33.891Z,101372.95
2018-09-28T01:06:03.412Z,101369.37
2018-09-28T01:08:32.960Z,101362.64
2018-09-28T01:11:02.507Z,101360.64
2018-09-28T01:13:32.090Z,101359.08
2018-09-28T01:16:01.985Z,101361.78
2018-09-28T01:18:31.568Z,101359.18
2018-09-28T01:21:01.139Z,101362.72
2018-09-28T01:23:30.684Z,101365.38
2018-09-28T01:26:00.234Z,101368.78
2018-09-28T01:28:29.866Z,101377.52
2018-09-28T01:30:59.454Z,101383.17
2018-09-28T01:33:29.017Z,101394.91
2018-09-28T01:35:58.619Z,101394.16
2018-09-28T01:38:28.197Z,101380.83
2018-09-28T01:40:57.764Z,101383.50
2018-09-28T01:43:27.310Z,101392.85
2018-09-28T01:45:56.961Z,101382.70
2018-09-28T01:48:26.588Z,101393.06
2018-09-28T01:50:56.151Z,101395.22
2018-09-28T01:53:25.714Z,101401.20
2018-09-28T01:55:55.439Z,101400.39
2018-09-28T01:58:25.040Z,101399.81
2018-09-28T02:00:54.614Z,101396.53
2018-09-28T02:03:24.187Z,101397.07
2018-09-28T02:05:53.779Z,101400.92
2018-09-28T02:08:23.373Z,101399.08
2018-09-28T02:10:53.119Z,101394.77
2018-09-28T02:13:22.698Z,101400.34
2018-09-28T02:15:52.345Z,101402.35
2018-09-28T02:18:22.047Z,101395.67
2018-09-28T02:20:51.594Z,101399.92
2018-09-28T02:23:21.247Z,101396.73
2018-09-28T02:25:50.797Z,101390.44
2018-09-28T02:28:20.455Z,101389.91
2018-09-28T02:30:50.215Z,101385.72
2018-09-28T02:33:19.793Z,101393.17
2018-09-28T02:35:49.489Z,101398.95
2018-09-28T02:38:19.104Z,101391.72
2018-09-28T02:40:48.670Z,101387.55
2018-09-28T02:43:18.199Z,101397.24
2018-09-28T02:45:47.905Z,101382.34
2018-09-28T02:48:17.642Z,101391.80
2018-09-28T02:50:47.271Z,101383.08
2018-09-28T02:53:19.595Z,101384.02
2018-09-28T02:55:50.411Z,101379.63
2018-09-28T02:58:20.035Z,101378.11
2018-09-28T03:00:49.623Z,101381.84
2018-09-28T03:03:19.331Z,101369.55
2018-09-28T03:05:48.848Z,101371.95
2018-09-28T03:08:18.405Z,101373.52
2018-09-28T03:10:47.941Z,101373.20
2018-09-28T03:13:17.503Z,101381.59
2018-09-28T03:15:47.061Z,101381.52
2018-09-28T03:18:16.638Z,101377.84
2018-09-28T03:20:46.246Z,101384.84
2018-09-28T03:23:15.780Z,101381.11
2018-09-28T03:25:45.343Z,101392.58
2018-09-28T03:28:14.906Z,101391.72
2018-09-28T03:30:44.566Z,101398.55
2018-09-28T03:33:14.181Z,101397.28
2018-09-28T03:35:43.775Z,101402.07
2018-09-28T03:38:13.317Z,101405.02
2018-09-28T03:40:43.197Z,101403.42
2018-09-28T03:43:12.782Z,101409.33
2018-09-28T03:45:42.474Z,101413.13
2018-09-28T03:48:12.104Z,101406.09
2018-09-28T03:50:41.682Z,101411.91
2018-09-28T03:53:11.256Z,101405.23
2018-09-28T03:55:40.826Z,101407.61
2018-09-28T03:58:10.370Z,101407.73
2018-09-28T04:00:39.936Z,101408.78
2018-09-28T04:03:09.561Z,101409.89
2018-09-28T04:05:39.073Z,101407.34
2018-09-28T04:08:08.714Z,101402.77
2018-09-28T04:10:38.304Z,101404.53
2018-09-28T04:13:07.886Z,101402.23
2018-09-28T04:15:37.489Z,101399.94
2018-09-28T04:18:07.073Z,101401.33
2018-09-28T04:20:36.816Z,101409.11
2018-09-28T04:23:06.393Z,101408.33
2018-09-28T04:25:35.949Z,101405.13
2018-09-28T04:28:05.577Z,101406.23
2018-09-28T04:30:35.156Z,101402.22
2018-09-28T04:33:04.712Z,101410.41
2018-09-28T04:35:34.278Z,101406.89
2018-09-28T04:38:03.870Z,101410.82
2018-09-28T04:40:33.482Z,101419.79
2018-09-28T04:43:03.041Z,101424.00
2018-09-28T04:45:32.683Z,101421.38
2018-09-28T04:48:02.343Z,101426.41
2018-09-28T04:50:31.907Z,101431.11
2018-09-28T04:53:01.493Z,101443.46
2018-09-28T04:55:31.091Z,101440.92
2018-09-28T04:58:00.723Z,101439.11
2018-09-28T05:00:30.370Z,101445.00
2018-09-28T05:03:00.029Z,101453.86
2018-09-28T05:05:29.703Z,101446.77
2018-09-28T05:07:59.284Z,101451.52
2018-09-28T05:10:28.857Z,101459.83
2018-09-28T05:12:58.472Z,101458.11
2018-09-28T05:15:28.232Z,101458.77
2018-09-28T05:17:57.781Z,101458.64
2018-09-28T05:20:27.375Z,101469.41
2018-09-28T05:22:57.951Z,101469.28
2018-09-28T05:25:27.993Z,101473.08
2018-09-28T05:27:57.737Z,101468.08
2018-09-28T05:30:27.322Z,101475.82
2018-09-28T05:32:57.055Z,101475.28
2018-09-28T05:35:26.682Z,101485.45
2018-09-28T05:37:56.238Z,101480.95
2018-09-28T05:40:25.828Z,101492.44
2018-09-28T05:42:55.595Z,101497.48
2018-09-28T05:45:25.189Z,101497.20
2018-09-28T05:47:55.425Z,101497.16
2018-09-28T05:50:24.948Z,101510.93
2018-09-28T05:52:54.489Z,101514.79
2018-09-28T05:55:24.034Z,101516.48
2018-09-28T05:57:57.695Z,101523.23
2018-09-28T06:00:32.520Z,101523.97
2018-09-28T06:03:06.347Z,101529.17
2018-09-28T06:05:40.462Z,101532.36
2018-09-28T06:08:10.236Z,101537.28
2018-09-28T06:10:39.808Z,101540.23
2018-09-28T06:13:09.481Z,101542.20
2018-09-28T06:15:38.977Z,101535.59
2018-09-28T06:18:08.527Z,101540.31
2018-09-28T06:20:38.123Z,101541.04
2018-09-28T06:23:07.696Z,101549.16
2018-09-28T06:25:37.562Z,101545.63
2018-09-28T06:28:07.356Z,101550.88
2018-09-28T06:30:36.997Z,101560.44
2018-09-28T06:33:06.874Z,101563.12
2018-09-28T06:35:36.503Z,101567.54
2018-09-28T06:38:06.224Z,101560.05
2018-09-28T06:40:36.026Z,101564.91
2018-09-28T06:43:05.593Z,101565.29
2018-09-28T06:45:35.232Z,101577.09
2018-09-28T06:48:04.855Z,101581.07
2018-09-28T06:53:12.457Z,101581.11
2018-09-28T06:55:42.248Z,101585.30
2018-09-28T06:58:11.832Z,101597.43
2018-09-28T07:00:41.864Z,101599.06
2018-09-28T07:03:11.426Z,101608.20
2018-09-28T07:05:41.062Z,101603.62
2018-09-28T07:08:10.824Z,101610.84
2018-09-28T07:10:40.380Z,101610.59
2018-09-28T07:13:10.081Z,101617.60
2018-09-28T07:15:39.719Z,101632.89
2018-09-28T07:18:09.312Z,101630.27
2018-09-28T07:20:39.055Z,101633.27
2018-09-28T07:23:08.947Z,101629.73
2018-09-28T07:25:38.485Z,101638.59
2018-09-28T07:28:08.155Z,101649.55
2018-09-28T07:30:37.741Z,101656.23
2018-09-28T07:33:11.488Z,101658.48
2018-09-28T07:35:41.092Z,101654.67
2018-09-28T07:38:10.888Z,101661.80
2018-09-28T07:40:40.439Z,101668.16
2018-09-28T07:43:10.005Z,101669.72
2018-09-28T07:45:39.557Z,101669.14
2018-09-28T07:48:09.204Z,101667.30
2018-09-28T07:50:38.883Z,101675.58
2018-09-28T07:53:08.425Z,101679.92
2018-09-28T07:55:38.115Z,101688.51
2018-09-28T07:58:08.982Z,101685.31
2018-09-28T08:00:38.527Z,101689.70
2018-09-28T08:03:08.185Z,101688.27
2018-09-28T08:05:38.437Z,101687.03
2018-09-28T08:08:08.310Z,101698.23
2018-09-28T08:10:37.816Z,101697.66
2018-09-28T08:13:07.410Z,101701.22
2018-09-28T08:15:36.969Z,101702.87
2018-09-28T08:18:07.808Z,101704.10
2018-09-28T08:20:37.326Z,101714.15
2018-09-28T08:23:06.913Z,101714.19
2018-09-28T08:25:36.609Z,101724.89
2018-09-28T08:28:06.471Z,101727.06
2018-09-28T08:30:36.369Z,101732.31
2018-09-28T08:33:06.138Z,101737.61
2018-09-28T08:35:35.695Z,101738.02
2018-09-28T08:38:05.519Z,101744.17
2018-09-28T08:40:35.856Z,101746.09
2018-09-28T08:43:05.605Z,101746.87
2018-09-28T08:45:35.184Z,101744.36
2018-09-28T08:48:04.742Z,101756.80
2018-09-28T08:50:34.443Z,101762.42
2018-09-28T08:53:03.981Z,101768.16
2018-09-28T08:55:33.708Z,101773.53
2018-09-28T08:58:03.334Z,101774.55
2018-09-28T09:00:33.097Z,101782.54
2018-09-28T09:03:02.598Z,101794.80
2018-09-28T09:05:32.277Z,101793.41
2018-09-28T09:08:01.836Z,101797.34
2018-09-28T09:10:31.410Z,101800.98
2018-09-28T09:13:00.986Z,101800.09
2018-09-28T09:15:30.582Z,101806.13
2018-09-28T09:18:00.169Z,101800.91
2018-09-28T09:20:30.097Z,101809.77
2018-09-28T09:22:59.655Z,101808.97
2018-09-28T09:25:29.250Z,101811.59
2018-09-28T09:27:58.774Z,101809.05
2018-09-28T09:30:28.305Z,101815.16
2018-09-28T09:32:57.973Z,101807.51
2018-09-28T09:35:27.656Z,101812.16
2018-09-28T09:37:57.225Z,101819.35
2018-09-28T09:40:27.008Z,101827.98
2018-09-28T09:42:56.526Z,101832.81
2018-09-28T09:45:26.139Z,101836.37
2018-09-28T09:47:55.699Z,101841.53
2018-09-28T09:50:25.217Z,101843.44
2018-09-28T09:52:54.823Z,101842.76
2018-09-28T09:55:24.542Z,101846.00
2018-09-28T09:57:54.370Z,101844.25
2018-09-28T10:00:29.582Z,101845.04
2018-09-28T10:03:02.242Z,101848.34
2018-09-28T10:05:32.217Z,101852.20
2018-09-28T10:08:02.977Z,101846.06
2018-09-28T10:10:32.529Z,101845.27
2018-09-28T10:13:02.080Z,101851.13
2018-09-28T10:15:31.647Z,101845.32
2018-09-28T10:18:01.201Z,101842.97
2018-09-28T10:20:30.752Z,101854.97
2018-09-28T10:23:00.363Z,101858.90
2018-09-28T10:25:29.979Z,101852.61
2018-09-28T10:28:00.053Z,101854.33
2018-09-28T10:30:29.766Z,101850.77
2018-09-28T10:32:59.324Z,101856.25
2018-09-28T10:35:28.859Z,101860.94
2018-09-28T10:37:58.547Z,101850.44
2018-09-28T10:40:28.653Z,101862.44
2018-09-28T10:42:58.343Z,101856.44
2018-09-28T10:45:28.007Z,101865.09
2018-09-28T10:47:57.655Z,101860.71
2018-09-28T10:50:27.250Z,101863.22
2018-09-28T10:52:56.960Z,101865.40
2018-09-28T10:55:26.562Z,101862.81
2018-09-28T10:57:56.157Z,101867.42
2018-09-28T11:00:25.879Z,101869.14
2018-09-28T11:02:55.567Z,101873.76
2018-09-28T11:05:25.111Z,101868.80
2018-09-28T11:07:54.664Z,101867.53
2018-09-28T11:10:24.265Z,101863.14
2018-09-28T11:12:53.985Z,101863.81
2018-09-28T11:15:23.638Z,101864.56
2018-09-28T11:17:54.396Z,101862.56
2018-09-28T11:20:23.919Z,101857.65
2018-09-28T11:22:53.566Z,101866.00
2018-09-28T11:25:23.411Z,101863.70
2018-09-28T11:27:52.958Z,101853.49
2018-09-28T11:30:23.676Z,101858.67
2018-09-28T11:32:53.432Z,101859.00
2018-09-28T11:35:23.058Z,101854.36
2018-09-28T11:37:52.825Z,101855.47
2018-09-28T11:40:22.783Z,101862.05
2018-09-28T11:42:52.351Z,101861.41
2018-09-28T11:45:21.993Z,101854.66
2018-09-28T11:47:51.752Z,101862.59
2018-09-28T11:50:21.312Z,101859.76
2018-09-28T11:52:50.963Z,101854.78
2018-09-28T11:55:20.534Z,101856.96
2018-09-28T11:57:50.153Z,101856.96
2018-09-28T12:00:19.781Z,101846.45
2018-09-28T12:02:49.292Z,101850.77
2018-09-28T12:05:18.912Z,101849.65
2018-09-28T12:07:48.544Z,101847.22
2018-09-28T12:10:18.128Z,101849.72
2018-09-28T12:12:47.850Z,101841.38
2018-09-28T12:15:17.537Z,101843.67
2018-09-28T12:17:47.250Z,101842.10
2018-09-28T12:20:16.822Z,101832.96
2018-09-28T12:22:46.439Z,101835.70
2018-09-28T12:25:16.043Z,101837.42
2018-09-28T12:27:45.665Z,101833.80
2018-09-28T12:30:15.757Z,101834.98
2018-09-28T12:32:45.546Z,101841.13
2018-09-28T12:35:15.167Z,101837.91
2018-09-28T12:37:44.707Z,101838.09
2018-09-28T12:40:14.256Z,101836.51
2018-09-28T12:42:43.848Z,101841.05
2018-09-28T12:45:13.896Z,101842.14
2018-09-28T12:47:43.591Z,101839.73
2018-09-28T12:50:13.704Z,101843.55
2018-09-28T12:52:43.586Z,101841.45
2018-09-28T12:55:13.242Z,101843.68
2018-09-28T12:57:42.831Z,101843.12
2018-09-28T13:00:12.492Z,101837.23
2018-09-28T13:02:42.260Z,101832.23
2018-09-28T13:05:12.121Z,101843.73
2018-09-28T13:07:41.689Z,101840.28
2018-09-28T13:10:12.434Z,101839.01
2018-09-28T13:12:42.128Z,101836.45
2018-09-28T13:15:12.105Z,101838.48
2018-09-28T13:17:41.715Z,101831.59
2018-09-28T13:20:11.589Z,101833.92
2018-09-28T13:22:41.305Z,101832.20
2018-09-28T13:25:10.987Z,101833.66
2018-09-28T13:27:40.595Z,101838.69
2018-09-28T13:30:10.529Z,101833.16
2018-09-28T13:32:40.369Z,101827.89
2018-09-28T13:35:10.029Z,101822.89
2018-09-28T13:37:40.787Z,101828.61
2018-09-28T13:40:11.021Z,101826.70
2018-09-28T13:42:40.592Z,101829.80
2018-09-28T13:45:10.407Z,101830.97
2018-09-28T13:47:40.099Z,101829.25
2018-09-28T13:50:09.679Z,101829.86
2018-09-28T13:52:39.502Z,101832.04
2018-09-28T13:55:09.806Z,101832.95
2018-09-28T13:57:43.513Z,101828.56
2018-09-28T14:00:13.497Z,101821.89
2018-09-28T14:02:43.242Z,101827.77
2018-09-28T14:05:12.934Z,101828.86
2018-09-28T14:07:42.516Z,101828.78
2018-09-28T14:10:12.073Z,101829.09
2018-09-28T14:12:41.913Z,101822.17
2018-09-28T14:15:12.050Z,101794.09
2018-09-28T14:17:41.742Z,101821.48
2018-09-28T14:20:11.335Z,101820.89
2018-09-28T14:22:41.746Z,101821.97
2018-09-28T14:25:11.467Z,101827.01
2018-09-28T14:27:41.045Z,101824.69
2018-09-28T14:30:10.691Z,101813.31
2018-09-28T14:32:40.460Z,101820.69
2018-09-28T14:35:11.111Z,101815.98
2018-09-28T14:37:40.795Z,101821.56
2018-09-28T14:40:10.846Z,101808.94
2018-09-28T14:42:40.781Z,101826.08
2018-09-28T14:45:10.616Z,101823.66
2018-09-28T14:47:41.894Z,101832.28
2018-09-28T14:50:11.609Z,101839.64
2018-09-28T14:52:41.423Z,101845.78
2018-09-28T14:55:11.497Z,101853.53
2018-09-28T14:57:41.049Z,101856.70
2018-09-28T15:00:11.072Z,101857.09
2018-09-28T15:02:40.811Z,101859.92
2018-09-28T15:05:10.867Z,101855.44
2018-09-28T15:07:40.440Z,101862.34
2018-09-28T15:10:10.212Z,101863.73
2018-09-28T15:12:41.075Z,101861.05
2018-09-28T15:15:10.808Z,101858.55
2018-09-28T15:17:40.576Z,101863.20
2018-09-28T15:20:10.485Z,101872.16
2018-09-28T15:22:40.036Z,101879.67
2018-09-28T15:25:09.653Z,101873.72
2018-09-28T15:27:39.264Z,101874.46
2018-09-28T15:30:09.539Z,101876.75
2018-09-28T15:32:39.339Z,101879.47
2018-09-28T15:35:09.309Z,101875.75
2018-09-28T15:37:39.091Z,101880.93
2018-09-28T15:40:10.189Z,101887.43
2018-09-28T15:42:39.784Z,101881.47
2018-09-28T15:45:09.329Z,101879.66
2018-09-28T15:47:38.919Z,101885.84
2018-09-28T15:50:08.645Z,101880.35
2018-09-28T15:52:38.258Z,101873.77
2018-09-28T15:55:08.791Z,101876.17
2018-09-28T15:57:39.403Z,101876.17
2018-09-28T16:00:09.553Z,101885.66
2018-09-28T16:02:39.213Z,101876.67
2018-09-28T16:05:09.481Z,101882.62
2018-09-28T16:07:39.041Z,101886.12
2018-09-28T16:10:08.643Z,101881.27
2018-09-28T16:12:38.220Z,101879.22
2018-09-28T16:15:07.835Z,101880.36
2018-09-28T16:17:38.353Z,101884.77
2018-09-28T16:20:08.069Z,101886.08
2018-09-28T16:22:37.916Z,101890.62
2018-09-28T16:25:09.252Z,101895.94
2018-09-28T16:27:39.220Z,101899.65
2018-09-28T16:30:09.718Z,101899.92
2018-09-28T16:32:39.391Z,101904.00
2018-09-28T16:35:09.277Z,101906.88
2018-09-28T16:37:38.935Z,101921.52
2018-09-28T16:40:08.859Z,101925.78
2018-09-28T16:42:38.445Z,101928.63
2018-09-28T16:45:08.442Z,101933.83
2018-09-28T16:47:38.014Z,101941.67
2018-09-28T16:50:08.261Z,101931.91
2018-09-28T16:52:38.030Z,101939.64
2018-09-28T16:55:07.555Z,101954.69
2018-09-28T16:57:37.153Z,101956.26
2018-09-28T17:00:06.878Z,101962.05
2018-09-28T17:02:36.572Z,101960.70
2018-09-28T17:05:06.454Z,101968.22
2018-09-28T17:07:36.077Z,101971.50
2018-09-28T17:10:06.347Z,101971.80
2018-09-28T17:12:36.134Z,101963.69
2018-09-28T17:15:06.399Z,101977.45
2018-09-28T17:17:36.041Z,101992.89
2018-09-28T17:20:05.667Z,101993.88
2018-09-28T17:22:35.229Z,101995.34
2018-09-28T17:25:05.140Z,102007.03
2018-09-28T17:27:34.695Z,102011.09
2018-09-28T17:30:04.386Z,101999.77
2018-09-28T17:32:34.128Z,102006.34
2018-09-28T17:35:04.524Z,102004.16
2018-09-28T17:37:34.369Z,102008.30
2018-09-28T17:40:04.318Z,102017.27
2018-09-28T17:42:33.913Z,102019.59
2018-09-28T17:45:03.578Z,102021.09
2018-09-28T17:47:33.150Z,102021.73
2018-09-28T17:50:03.981Z,102028.67
2018-09-28T17:52:33.501Z,102038.12
2018-09-28T17:55:03.039Z,102035.71
2018-09-28T17:57:32.537Z,102038.89
2018-09-28T18:00:03.259Z,102044.78
2018-09-28T18:02:33.357Z,102054.52
2018-09-28T18:05:03.710Z,102055.22
2018-09-28T18:07:33.293Z,102052.28
2018-09-28T18:10:02.901Z,102058.67
2018-09-28T18:12:32.729Z,102061.51
2018-09-28T18:15:02.402Z,102074.73
2018-09-28T18:17:32.044Z,102071.41
2018-09-28T18:20:01.638Z,102068.48
2018-09-28T18:22:31.362Z,102068.75
2018-09-28T18:25:01.021Z,102072.33
2018-09-28T18:27:30.629Z,102078.20
2018-09-28T18:30:00.143Z,102085.65
2018-09-28T18:32:29.673Z,102089.75
2018-09-28T18:34:59.168Z,102097.72
2018-09-28T18:37:28.981Z,102103.12
2018-09-28T18:39:58.625Z,102097.97
2018-09-28T18:42:28.253Z,102097.23
2018-09-28T18:44:57.846Z,102100.34
2018-09-28T18:47:28.511Z,102092.69
2018-09-28T18:49:58.080Z,102106.19
2018-09-28T18:52:27.609Z,102105.58
2018-09-28T18:54:57.254Z,102117.11
2018-09-28T18:57:26.822Z,102118.16
2018-09-28T18:59:56.840Z,102123.70
2018-09-28T19:02:26.455Z,102119.44
2018-09-28T19:04:56.362Z,102126.44
2018-09-28T19:07:25.889Z,102128.61
2018-09-28T19:09:55.510Z,102125.10
2018-09-28T19:12:25.224Z,102125.19
2018-09-28T19:14:55.247Z,102119.53
2018-09-28T19:17:24.783Z,102117.05
2018-09-28T19:19:54.419Z,102130.19
2018-09-28T19:22:27.089Z,102126.25
2018-09-28T19:24:56.600Z,102124.47
2018-09-28T19:27:26.184Z,102129.66
2018-09-28T19:29:55.806Z,102133.67
2018-09-28T19:32:25.350Z,102135.07
2018-09-28T19:34:55.686Z,102137.75
2018-09-28T19:37:25.231Z,102139.95
2018-09-28T19:39:55.402Z,102136.17
2018-09-28T19:42:24.954Z,102146.56
2018-09-28T19:44:54.507Z,102157.16
2018-09-28T19:47:24.879Z,102156.44
2018-09-28T19:49:54.563Z,102160.95
2018-09-28T19:52:24.587Z,102163.20
2018-09-28T19:54:54.077Z,102164.66
2018-09-28T19:57:23.618Z,102162.20
2018-09-28T19:59:53.170Z,102171.03
2018-09-28T20:02:22.722Z,102175.98
2018-09-28T20:04:52.258Z,102170.02
2018-09-28T20:07:21.782Z,102182.17
2018-09-28T20:09:51.326Z,102180.83
2018-09-28T20:12:20.889Z,102180.55
2018-09-28T20:14:50.433Z,102179.45
2018-09-28T20:17:19.953Z,102193.30
2018-09-28T20:19:49.594Z,102196.78
2018-09-28T20:22:19.196Z,102196.86
2018-09-28T20:24:48.735Z,102200.86
2018-09-28T20:27:18.271Z,102204.57
2018-09-28T20:29:48.417Z,102207.00
2018-09-28T20:32:18.058Z,102209.37
2018-09-28T20:34:47.595Z,102214.37
2018-09-28T20:37:17.162Z,102223.23
2018-09-28T20:39:46.652Z,102215.50
2018-09-28T20:42:16.204Z,102208.66
2018-09-28T20:44:45.821Z,102227.73
2018-09-28T20:47:16.011Z,102216.52
2018-09-28T20:49:45.625Z,102217.88
2018-09-28T20:52:15.127Z,102213.65
2018-09-28T20:54:44.737Z,102225.91
2018-09-28T20:57:14.308Z,102225.50
2018-09-28T20:59:43.840Z,102225.61
2018-09-28T21:02:13.389Z,102235.58
2018-09-28T21:04:42.933Z,102233.45
2018-09-28T21:07:13.365Z,102241.30
2018-09-28T21:09:42.893Z,102241.31
2018-09-28T21:12:12.459Z,102237.52
2018-09-28T21:14:42.018Z,102241.07
2018-09-28T21:17:11.527Z,102235.52
2018-09-28T21:19:41.103Z,102251.22
2018-09-28T21:22:11.060Z,102254.83
2018-09-28T21:24:40.604Z,102256.17
2018-09-28T21:27:10.376Z,102253.25
2018-09-28T21:29:40.123Z,102250.75
2018-09-28T21:32:09.656Z,102249.88
2018-09-28T21:34:39.154Z,102255.61
2018-09-28T21:37:08.721Z,102259.64
2018-09-28T21:39:38.241Z,102258.98
2018-09-28T21:42:07.818Z,102256.43
2018-09-28T21:44:37.386Z,102260.75
2018-09-28T21:47:07.202Z,102257.69
2018-09-28T21:49:36.904Z,102258.55
2018-09-28T21:52:06.411Z,102256.38
2018-09-28T21:54:35.913Z,102255.14
2018-09-28T21:57:05.491Z,102259.16
2018-09-28T21:59:34.982Z,102255.02
2018-09-28T22:02:04.882Z,102260.63
2018-09-28T22:04:34.456Z,102252.95
2018-09-28T22:07:04.008Z,102266.07
2018-09-28T22:09:33.996Z,102258.09
2018-09-28T22:12:03.493Z,102265.50
2018-09-28T22:14:33.214Z,102260.77
2018-09-28T22:17:02.693Z,102256.41
2018-09-28T22:19:32.231Z,102270.34
2018-09-28T22:22:01.886Z,102266.14
2018-09-28T22:24:31.341Z,102275.34
2018-09-28T22:27:01.010Z,102273.79
2018-09-28T22:29:30.531Z,102233.89
2018-09-28T22:32:00.132Z,102275.23
2018-09-28T22:34:29.665Z,102270.41
2018-09-28T22:36:59.200Z,102268.28
2018-09-28T22:39:28.753Z,102263.97
2018-09-28T22:41:58.341Z,102256.14
2018-09-28T22:44:27.814Z,102259.63
2018-09-28T22:46:57.457Z,102258.80
2018-09-28T22:49:26.992Z,102254.92
2018-09-28T22:51:56.556Z,102258.38
2018-09-28T22:54:26.130Z,102261.98
2018-09-28T22:56:55.716Z,102265.16
2018-09-28T22:59:25.371Z,102270.86
2018-09-28T23:01:54.896Z,102255.38
2018-09-28T23:04:24.461Z,102258.45
2018-09-28T23:06:53.989Z,102249.84
2018-09-28T23:09:23.630Z,102255.55
2018-09-28T23:11:53.140Z,102267.41
2018-09-28T23:14:22.758Z,102276.36
2018-09-28T23:16:52.274Z,102280.34
2018-09-28T23:19:21.784Z,102280.31
2018-09-28T23:21:51.433Z,102290.73
2018-09-28T23:24:21.422Z,102286.57
2018-09-28T23:26:51.057Z,102294.42
2018-09-28T23:29:21.469Z,102297.39
2018-09-28T23:31:51.001Z,102299.13
2018-09-28T23:34:20.550Z,102298.34
2018-09-28T23:36:50.030Z,102301.84
2018-09-28T23:39:19.557Z,102299.23
2018-09-28T23:41:49.093Z,102297.97
2018-09-28T23:44:19.015Z,102300.57
2018-09-28T23:46:48.707Z,102298.91
2018-09-28T23:49:19.275Z,102306.81
2018-09-28T23:51:48.848Z,102298.26
2018-09-28T23:54:18.371Z,102301.27
2018-09-28T23:56:48.046Z,102303.50
2018-09-28T23:59:18.215Z,102293.55
